createdAt,value
2023-01-30T00:01:50.016Z,22.13
2023-01-30T00:04:17.439Z,28.23
2023-01-30T00:06:44.569Z,23.73
2023-01-30T00:09:14.851Z,26.65
2023-01-30T00:11:42.499Z,23.90
2023-01-30T00:14:09.877Z,24.58
2023-01-30T00:16:36.626Z,27.27
2023-01-30T00:19:03.434Z,22.90
2023-01-30T00:21:30.051Z,24.30
2023-01-30T00:23:56.637Z,21.02
2023-01-30T00:26:23.325Z,26.52
2023-01-30T00:28:49.955Z,26.25
2023-01-30T00:31:16.635Z,26.55
2023-01-30T00:33:43.219Z,25.77
2023-01-30T00:36:10.762Z,25.63
2023-01-30T00:38:37.608Z,23.45
2023-01-30T00:41:04.578Z,25.77
2023-01-30T00:43:49.761Z,23.13
2023-01-30T00:46:58.354Z,24.40
2023-01-30T00:49:25.022Z,29.75
2023-01-30T00:51:51.800Z,22.58
2023-01-30T00:54:18.486Z,21.27
2023-01-30T00:56:45.054Z,27.08
2023-01-30T00:59:11.772Z,27.48
2023-01-30T01:01:38.921Z,24.17
2023-01-30T01:04:06.988Z,25.40
2023-01-30T01:06:33.631Z,29.25
2023-01-30T01:09:00.351Z,25.08
2023-01-30T01:11:27.062Z,27.83
2023-01-30T01:13:56.237Z,25.35
2023-01-30T01:16:23.776Z,22.88
2023-01-30T01:18:51.342Z,25.40
2023-01-30T01:21:20.308Z,23.92
2023-01-30T01:23:59.457Z,29.65
2023-01-30T01:26:27.046Z,24.05
2023-01-30T01:28:57.719Z,23.83
2023-01-30T01:31:25.739Z,26.98
2023-01-30T01:33:52.463Z,25.33
2023-01-30T01:36:42.531Z,22.63
2023-01-30T01:39:06.002Z,31.85
2023-01-30T01:41:32.568Z,23.52
2023-01-30T01:44:08.188Z,22.90
2023-01-30T01:46:36.898Z,22.73
2023-01-30T01:49:25.855Z,21.20
2023-01-30T01:52:04.084Z,23.65
2023-01-30T01:54:45.633Z,22.05
2023-01-30T01:57:32.272Z,24.13
2023-01-30T02:00:05.039Z,26.33
2023-01-30T02:02:32.333Z,24.48
2023-01-30T02:05:03.579Z,19.63
2023-01-30T02:07:33.690Z,23.73
2023-01-30T02:10:01.266Z,25.33
2023-01-30T02:12:28.105Z,23.92
2023-01-30T02:14:57.376Z,23.23
2023-01-30T02:17:24.635Z,25.02
2023-01-30T02:19:55.389Z,22.20
2023-01-30T02:22:59.607Z,22.25
2023-01-30T02:25:51.078Z,21.63
2023-01-30T02:28:55.121Z,23.25
2023-01-30T02:31:27.566Z,21.63
2023-01-30T02:34:10.958Z,20.40
2023-01-30T02:37:21.973Z,21.25
2023-01-30T02:40:11.742Z,19.63
2023-01-30T02:43:09.918Z,23.35
2023-01-30T02:45:53.191Z,19.48
2023-01-30T02:48:47.718Z,19.58
2023-01-30T02:51:20.380Z,22.88
2023-01-30T02:53:48.731Z,20.98
2023-01-30T02:56:15.685Z,22.80
2023-01-30T02:58:48.679Z,17.30
2023-01-30T03:01:31.351Z,20.75
2023-01-30T03:04:32.029Z,24.65
2023-01-30T03:07:29.418Z,18.73
2023-01-30T03:10:14.593Z,18.67
2023-01-30T03:12:58.871Z,18.13
2023-01-30T03:15:40.153Z,20.60
2023-01-30T03:18:07.528Z,21.80
2023-01-30T03:20:39.051Z,20.20
2023-01-30T03:23:05.807Z,19.38
2023-01-30T03:25:34.022Z,19.33
2023-01-30T03:28:03.757Z,20.80
2023-01-30T03:30:30.361Z,20.63
2023-01-30T03:32:56.996Z,19.60
2023-01-30T03:35:24.149Z,18.70
2023-01-30T03:37:51.069Z,22.95
2023-01-30T03:40:18.500Z,19.10
2023-01-30T03:42:45.156Z,20.23
2023-01-30T03:45:12.278Z,19.77
2023-01-30T03:47:38.867Z,18.58
2023-01-30T03:50:05.889Z,20.15
2023-01-30T03:52:35.499Z,19.98
2023-01-30T03:55:02.903Z,19.30
2023-01-30T03:57:29.514Z,25.67
2023-01-30T03:59:56.134Z,21.52
2023-01-30T04:02:23.466Z,23.85
2023-01-30T04:04:50.298Z,27.05
2023-01-30T04:07:17.744Z,18.63
2023-01-30T04:09:44.622Z,21.15
2023-01-30T04:12:11.202Z,18.00
2023-01-30T04:14:37.802Z,21.58
2023-01-30T04:17:04.461Z,20.83
2023-01-30T04:19:31.170Z,19.77
2023-01-30T04:21:57.788Z,23.13
2023-01-30T04:24:24.505Z,16.98
2023-01-30T04:26:51.067Z,21.45
2023-01-30T04:29:17.708Z,23.30
2023-01-30T04:31:44.316Z,23.20
2023-01-30T04:34:10.995Z,18.92
2023-01-30T04:36:37.577Z,22.27
2023-01-30T04:39:04.572Z,21.65
2023-01-30T04:41:31.190Z,16.55
2023-01-30T04:43:57.859Z,22.83
2023-01-30T04:46:24.889Z,20.55
2023-01-30T04:48:51.686Z,19.55
2023-01-30T04:51:18.631Z,24.77
2023-01-30T04:53:45.644Z,25.02
2023-01-30T04:56:12.338Z,24.42
2023-01-30T04:58:39.005Z,28.52
2023-01-30T05:01:21.709Z,20.20
2023-01-30T05:03:55.523Z,24.33
2023-01-30T05:06:23.655Z,27.88
2023-01-30T05:08:51.739Z,26.63
2023-01-30T05:11:19.391Z,27.60
2023-01-30T05:13:46.536Z,22.40
2023-01-30T05:16:14.964Z,31.92
2023-01-30T05:18:42.415Z,34.33
2023-01-30T05:21:14.052Z,26.90
2023-01-30T05:23:40.943Z,38.25
2023-01-30T05:26:07.976Z,34.45
2023-01-30T05:28:35.050Z,33.65
2023-01-30T05:31:03.061Z,31.77
2023-01-30T05:33:30.389Z,35.95
2023-01-30T05:35:57.400Z,37.38
2023-01-30T05:38:25.132Z,39.80
2023-01-30T05:41:03.660Z,41.28
2023-01-30T05:43:31.283Z,30.50
2023-01-30T05:46:00.616Z,36.25
2023-01-30T05:48:28.759Z,41.65
2023-01-30T05:50:57.506Z,44.97
2023-01-30T05:53:27.141Z,48.75
2023-01-30T05:55:57.431Z,43.42
2023-01-30T05:58:24.743Z,45.95
2023-01-30T06:00:51.729Z,40.92
2023-01-30T06:03:18.473Z,42.75
2023-01-30T06:05:45.296Z,41.38
2023-01-30T06:08:12.188Z,46.53
2023-01-30T06:10:38.952Z,39.35
2023-01-30T06:13:05.574Z,43.80
2023-01-30T06:15:34.331Z,43.15
2023-01-30T06:18:00.889Z,40.30
2023-01-30T06:20:27.650Z,38.67
2023-01-30T06:22:54.220Z,37.67
2023-01-30T06:25:21.130Z,43.88
2023-01-30T06:27:47.947Z,40.88
2023-01-30T06:30:15.037Z,42.40
2023-01-30T06:32:42.898Z,39.92
2023-01-30T06:35:09.851Z,38.45
2023-01-30T06:37:36.445Z,40.35
2023-01-30T06:40:03.204Z,44.85
2023-01-30T06:42:29.749Z,39.90
2023-01-30T06:44:56.350Z,40.38
2023-01-30T06:47:22.959Z,35.03
2023-01-30T06:49:49.514Z,42.95
2023-01-30T06:52:16.184Z,45.30
2023-01-30T06:54:42.800Z,43.60
2023-01-30T06:57:09.722Z,42.67
2023-01-30T06:59:36.358Z,39.38
2023-01-30T07:02:02.967Z,39.83
2023-01-30T07:04:29.601Z,48.28
2023-01-30T07:06:57.138Z,36.22
2023-01-30T07:09:23.732Z,35.00
2023-01-30T07:11:51.021Z,34.83
2023-01-30T07:14:17.632Z,33.40
2023-01-30T07:16:44.205Z,35.70
2023-01-30T07:19:10.997Z,37.25
2023-01-30T07:21:37.633Z,38.53
2023-01-30T07:24:04.735Z,33.13
2023-01-30T07:26:31.475Z,28.20
2023-01-30T07:28:58.470Z,33.13
2023-01-30T07:31:25.125Z,36.03
2023-01-30T07:33:51.742Z,31.42
2023-01-30T07:36:18.404Z,36.55
2023-01-30T07:38:45.082Z,31.55
2023-01-30T07:41:11.661Z,32.58
2023-01-30T07:43:38.315Z,33.28
2023-01-30T07:46:05.046Z,37.88
2023-01-30T07:48:31.638Z,34.75
2023-01-30T07:50:58.189Z,38.97
2023-01-30T07:53:25.061Z,29.05
2023-01-30T07:55:51.888Z,31.45
2023-01-30T07:58:18.440Z,33.25
2023-01-30T08:00:45.208Z,27.40
2023-01-30T08:03:13.959Z,30.40
2023-01-30T08:05:40.757Z,29.38
2023-01-30T08:08:07.431Z,28.27
2023-01-30T08:10:34.064Z,36.60
2023-01-30T08:13:00.808Z,25.48
2023-01-30T08:15:27.502Z,30.33
2023-01-30T08:17:56.308Z,25.50
2023-01-30T08:20:23.567Z,27.23
2023-01-30T08:22:50.264Z,24.75
2023-01-30T08:25:17.195Z,27.33
2023-01-30T08:27:43.928Z,28.55
2023-01-30T08:30:11.621Z,32.25
2023-01-30T08:32:38.249Z,26.05
2023-01-30T08:35:05.195Z,31.48
2023-01-30T08:37:31.967Z,22.63
2023-01-30T08:39:58.710Z,22.38
2023-01-30T08:42:25.546Z,24.02
2023-01-30T08:44:52.144Z,24.42
2023-01-30T08:47:19.136Z,23.90
2023-01-30T08:49:45.754Z,24.08
2023-01-30T08:52:12.380Z,19.92
2023-01-30T08:54:39.043Z,16.30
2023-01-30T08:57:05.687Z,24.30
2023-01-30T08:59:32.330Z,21.88
2023-01-30T09:01:58.930Z,22.45
2023-01-30T09:04:26.574Z,22.38
2023-01-30T09:06:53.203Z,22.52
2023-01-30T09:09:19.886Z,24.27
2023-01-30T09:11:48.138Z,19.55
2023-01-30T09:14:19.670Z,24.48
2023-01-30T09:16:56.144Z,22.70
2023-01-30T09:19:27.086Z,18.95
2023-01-30T09:21:54.412Z,22.40
2023-01-30T09:24:26.468Z,24.63
2023-01-30T09:26:58.953Z,19.60
2023-01-30T09:29:29.601Z,20.98
2023-01-30T09:31:56.764Z,22.88
2023-01-30T09:34:28.865Z,20.20
2023-01-30T09:39:22.889Z,26.08
2023-01-30T09:42:04.821Z,23.67
2023-01-30T09:44:56.289Z,24.60
2023-01-30T09:47:32.128Z,23.38
2023-01-30T09:50:34.091Z,24.30
2023-01-30T09:53:16.293Z,30.02
2023-01-30T09:55:43.570Z,22.45
2023-01-30T09:58:19.106Z,22.73
2023-01-30T10:00:49.021Z,19.83
2023-01-30T10:03:19.980Z,24.38
2023-01-30T10:06:23.153Z,27.42
2023-01-30T10:09:17.368Z,22.65
2023-01-30T10:12:06.233Z,25.88
2023-01-30T10:15:05.024Z,25.58
2023-01-30T10:18:03.434Z,23.58
2023-01-30T10:21:00.615Z,23.17
2023-01-30T10:23:36.525Z,20.45
2023-01-30T10:26:16.250Z,28.95
2023-01-30T10:29:06.221Z,27.63
2023-01-30T10:31:51.749Z,25.35
2023-01-30T10:34:34.827Z,29.77
2023-01-30T10:37:30.869Z,19.42
2023-01-30T10:40:10.960Z,22.98
2023-01-30T10:42:40.721Z,21.90
2023-01-30T10:45:15.366Z,20.13
2023-01-30T10:48:10.862Z,26.35
2023-01-30T10:50:52.578Z,25.15
2023-01-30T10:53:42.439Z,24.63
2023-01-30T10:56:17.092Z,28.67
2023-01-30T10:59:09.821Z,27.38
2023-01-30T11:02:03.544Z,26.83
2023-01-30T11:04:45.440Z,25.13
2023-01-30T11:07:13.400Z,27.05
2023-01-30T11:09:50.206Z,26.33
2023-01-30T11:12:16.886Z,29.38
2023-01-30T11:14:52.272Z,26.98
2023-01-30T11:17:21.701Z,30.92
2023-01-30T11:19:56.826Z,22.13
2023-01-30T11:22:28.763Z,30.33
2023-01-30T11:25:14.289Z,22.30
2023-01-30T11:27:44.367Z,22.63
2023-01-30T11:30:17.846Z,30.27
2023-01-30T11:32:48.412Z,33.72
2023-01-30T11:35:14.953Z,35.05
2023-01-30T11:37:45.113Z,26.08
2023-01-30T11:40:17.986Z,30.17
2023-01-30T11:42:48.879Z,29.13
2023-01-30T11:45:18.658Z,21.27
2023-01-30T11:47:57.940Z,29.02
2023-01-30T11:50:36.991Z,23.80
2023-01-30T11:53:21.382Z,32.58
2023-01-30T11:56:02.192Z,27.95
2023-01-30T11:58:34.772Z,27.10
2023-01-30T12:01:02.293Z,26.88
2023-01-30T12:03:32.884Z,29.77
2023-01-30T12:06:00.168Z,34.55
2023-01-30T12:08:42.670Z,31.55
2023-01-30T12:11:28.211Z,38.13
2023-01-30T12:14:32.073Z,32.85
2023-01-30T12:17:14.156Z,24.83
2023-01-30T12:19:56.598Z,29.88
2023-01-30T12:22:41.456Z,26.48
2023-01-30T12:25:20.656Z,29.27
2023-01-30T12:28:05.748Z,26.52
2023-01-30T12:30:32.319Z,26.95
2023-01-30T12:33:04.705Z,27.90
2023-01-30T12:38:35.856Z,31.48
2023-01-30T12:41:29.197Z,24.58
2023-01-30T12:44:08.136Z,29.67
2023-01-30T12:46:56.055Z,27.85
2023-01-30T12:49:37.367Z,26.63
2023-01-30T12:52:23.152Z,27.83
2023-01-30T12:55:01.631Z,29.13
2023-01-30T12:57:50.298Z,30.33
2023-01-30T13:00:29.352Z,25.55
2023-01-30T13:03:14.380Z,25.92
2023-01-30T13:05:54.224Z,26.45
2023-01-30T13:08:45.990Z,29.20
2023-01-30T13:11:37.469Z,34.43
2023-01-30T13:14:13.529Z,34.40
2023-01-30T13:16:49.271Z,28.73
2023-01-30T13:19:23.100Z,27.35
2023-01-30T13:22:01.904Z,25.92
2023-01-30T13:25:03.845Z,25.23
2023-01-30T13:27:37.305Z,32.47
2023-01-30T13:30:10.457Z,28.42
2023-01-30T13:32:44.639Z,33.92
2023-01-30T13:35:19.422Z,31.70
2023-01-30T13:37:49.021Z,24.65
2023-01-30T13:40:23.118Z,30.10
2023-01-30T13:43:11.360Z,34.80
2023-01-30T13:45:42.965Z,23.70
2023-01-30T13:48:21.433Z,33.08
2023-01-30T13:51:13.017Z,32.33
2023-01-30T13:54:11.968Z,27.90
2023-01-30T13:56:53.648Z,34.92
2023-01-30T13:59:35.350Z,30.98
2023-01-30T14:02:07.142Z,35.55
2023-01-30T14:04:39.665Z,30.63
2023-01-30T14:07:12.318Z,27.88
2023-01-30T14:10:02.469Z,28.17
2023-01-30T14:12:35.409Z,29.02
2023-01-30T14:15:28.905Z,31.15
2023-01-30T14:18:07.407Z,32.03
2023-01-30T14:20:43.089Z,27.15
2023-01-30T14:23:21.968Z,31.70
2023-01-30T14:25:54.059Z,29.42
2023-01-30T14:28:20.620Z,31.20
2023-01-30T14:30:48.718Z,31.30
2023-01-30T14:33:21.430Z,35.75
2023-01-30T14:36:03.134Z,31.73
2023-01-30T14:38:31.912Z,33.00
2023-01-30T14:40:58.510Z,40.45
2023-01-30T14:43:35.392Z,30.98
2023-01-30T14:46:03.199Z,32.00
2023-01-30T14:48:39.778Z,34.42
2023-01-30T14:51:39.318Z,30.27
2023-01-30T14:54:11.803Z,29.83
2023-01-30T14:56:44.220Z,33.88
2023-01-30T14:59:16.863Z,35.53
2023-01-30T15:02:01.627Z,37.35
2023-01-30T15:04:33.345Z,33.25
2023-01-30T15:07:10.887Z,29.95
2023-01-30T15:09:40.765Z,33.95
2023-01-30T15:12:26.691Z,32.30
2023-01-30T15:15:24.122Z,36.53
2023-01-30T15:18:29.313Z,41.80
2023-01-30T15:21:19.509Z,30.50
2023-01-30T15:24:04.433Z,31.98
2023-01-30T15:26:47.242Z,33.28
2023-01-30T15:29:47.143Z,33.72
2023-01-30T15:32:19.903Z,32.65
2023-01-30T15:35:12.265Z,30.63
2023-01-30T15:37:41.555Z,35.15
2023-01-30T15:40:12.360Z,34.03
2023-01-30T15:42:39.098Z,45.95
2023-01-30T15:45:17.415Z,35.72
2023-01-30T15:47:54.489Z,38.13
2023-01-30T15:50:21.505Z,32.80
2023-01-30T15:52:51.565Z,32.42
2023-01-30T15:55:29.974Z,32.30
2023-01-30T15:58:01.532Z,40.92
2023-01-30T16:00:34.855Z,35.80
2023-01-30T16:03:03.776Z,36.33
2023-01-30T16:05:30.781Z,34.25
2023-01-30T16:07:59.236Z,33.83
2023-01-30T16:10:28.363Z,36.83
2023-01-30T16:12:57.143Z,42.13
2023-01-30T16:15:36.745Z,33.88
2023-01-30T16:18:13.151Z,33.88
2023-01-30T16:21:00.210Z,34.42
2023-01-30T16:23:52.395Z,28.42
2023-01-30T16:26:21.973Z,30.48
2023-01-30T16:28:51.114Z,35.25
2023-01-30T16:31:18.876Z,34.33
2023-01-30T16:33:52.769Z,37.25
2023-01-30T16:36:22.493Z,34.60
2023-01-30T16:38:50.756Z,39.75
2023-01-30T16:41:35.189Z,31.90
2023-01-30T16:44:21.604Z,39.38
2023-01-30T16:47:02.827Z,33.92
2023-01-30T16:49:39.299Z,38.97
2023-01-30T16:52:11.959Z,36.03
2023-01-30T16:54:47.208Z,28.75
2023-01-30T16:57:36.396Z,34.67
2023-01-30T17:00:10.119Z,33.90
2023-01-30T17:02:41.206Z,36.00
2023-01-30T17:05:18.260Z,34.00
2023-01-30T17:07:45.661Z,32.83
2023-01-30T17:10:41.503Z,27.75
2023-01-30T17:13:30.110Z,31.98
2023-01-30T17:16:16.713Z,29.35
2023-01-30T17:18:46.979Z,28.63
2023-01-30T17:21:14.706Z,30.42
2023-01-30T17:23:46.986Z,35.92
2023-01-30T17:26:15.391Z,32.35
2023-01-30T17:28:42.380Z,29.30
2023-01-30T17:31:13.706Z,28.88
2023-01-30T17:33:40.744Z,27.10
2023-01-30T17:36:17.429Z,26.45
2023-01-30T17:38:43.990Z,30.45
2023-01-30T17:41:20.680Z,27.13
2023-01-30T17:43:49.743Z,24.65
2023-01-30T17:46:17.190Z,23.45
2023-01-30T17:48:44.791Z,26.88
2023-01-30T17:51:14.456Z,26.10
2023-01-30T17:53:41.916Z,25.85
2023-01-30T17:56:19.192Z,25.55
2023-01-30T17:58:46.174Z,24.98
2023-01-30T18:01:19.171Z,25.25
2023-01-30T18:03:46.157Z,24.90
2023-01-30T18:06:14.577Z,23.88
2023-01-30T18:08:41.951Z,27.27
2023-01-30T18:11:11.768Z,22.20
2023-01-30T18:13:39.949Z,21.65
2023-01-30T18:16:06.853Z,27.17
2023-01-30T18:18:34.292Z,23.58
2023-01-30T18:21:01.017Z,30.45
2023-01-30T18:23:28.823Z,30.73
2023-01-30T18:25:55.461Z,26.17
2023-01-30T18:28:22.163Z,23.45
2023-01-30T18:30:48.950Z,24.20
2023-01-30T18:33:15.688Z,22.70
2023-01-30T18:35:42.473Z,23.80
2023-01-30T18:38:09.249Z,24.67
2023-01-30T18:40:39.317Z,23.20
2023-01-30T18:43:06.111Z,24.55
2023-01-30T18:45:32.880Z,21.48
2023-01-30T18:48:00.323Z,21.55
2023-01-30T18:50:27.139Z,25.90
2023-01-30T18:52:53.757Z,26.42
2023-01-30T18:55:21.252Z,23.60
2023-01-30T18:57:48.245Z,29.23
2023-01-30T19:00:21.401Z,26.42
2023-01-30T19:02:53.047Z,20.67
2023-01-30T19:05:20.259Z,23.10
2023-01-30T19:07:47.260Z,26.05
2023-01-30T19:10:17.711Z,25.65
2023-01-30T19:13:06.083Z,26.55
2023-01-30T19:15:35.349Z,28.42
2023-01-30T19:18:01.964Z,25.13
2023-01-30T19:20:28.938Z,26.50
2023-01-30T19:22:55.702Z,28.58
2023-01-30T19:25:22.633Z,36.10
2023-01-30T19:27:49.286Z,26.10
2023-01-30T19:30:16.182Z,28.48
2023-01-30T19:32:42.949Z,28.13
2023-01-30T19:35:12.047Z,23.98
2023-01-30T19:37:39.355Z,26.33
2023-01-30T19:40:09.485Z,24.60
2023-01-30T19:42:38.767Z,27.65
2023-01-30T19:45:07.640Z,25.95
2023-01-30T19:47:34.634Z,29.13
2023-01-30T19:50:03.750Z,27.05
2023-01-30T19:52:30.443Z,26.30
2023-01-30T19:54:57.117Z,25.63
2023-01-30T19:57:23.771Z,25.25
2023-01-30T19:59:50.728Z,24.48
2023-01-30T20:02:17.387Z,23.98
2023-01-30T20:04:44.056Z,21.75
2023-01-30T20:07:10.745Z,25.67
2023-01-30T20:09:37.364Z,22.85
2023-01-30T20:12:04.100Z,27.70
2023-01-30T20:14:30.740Z,26.17
2023-01-30T20:16:57.305Z,28.48
2023-01-30T20:19:23.937Z,22.67
2023-01-30T20:21:50.775Z,24.10
2023-01-30T20:24:17.433Z,23.83
2023-01-30T20:26:48.383Z,25.80
2023-01-30T20:29:17.473Z,36.90
2023-01-30T20:31:44.262Z,27.23
2023-01-30T20:34:15.478Z,26.73
2023-01-30T20:36:42.136Z,25.15
2023-01-30T20:39:09.169Z,25.88
2023-01-30T20:41:37.628Z,24.88
2023-01-30T20:44:06.651Z,26.90
2023-01-30T20:46:41.666Z,25.92
2023-01-30T20:49:26.880Z,26.13
2023-01-30T20:51:54.388Z,27.45
2023-01-30T20:54:23.254Z,32.17
2023-01-30T20:56:52.336Z,31.27
2023-01-30T20:59:23.943Z,24.58
2023-01-30T21:01:52.065Z,33.42
2023-01-30T21:04:22.273Z,28.13
2023-01-30T21:06:48.992Z,26.95
2023-01-30T21:09:19.044Z,28.60
2023-01-30T21:11:46.362Z,25.77
2023-01-30T21:14:13.049Z,28.10
2023-01-30T21:16:39.940Z,26.83
2023-01-30T21:19:11.154Z,27.08
2023-01-30T21:21:44.294Z,29.50
2023-01-30T21:24:14.731Z,23.45
2023-01-30T21:26:46.323Z,22.70
2023-01-30T21:29:22.080Z,26.20
2023-01-30T21:31:49.181Z,27.75
2023-01-30T21:34:15.943Z,26.25
2023-01-30T21:36:42.663Z,24.15
2023-01-30T21:39:33.906Z,21.63
2023-01-30T21:42:21.207Z,23.52
2023-01-30T21:44:47.946Z,24.80
2023-01-30T21:47:14.643Z,29.52
2023-01-30T21:49:43.971Z,22.23
2023-01-30T21:52:10.588Z,27.45
2023-01-30T21:54:37.757Z,29.05
2023-01-30T21:57:04.385Z,22.00
2023-01-30T21:59:32.045Z,27.90
2023-01-30T22:01:58.636Z,31.30
2023-01-30T22:04:25.228Z,25.58
2023-01-30T22:06:51.940Z,34.05
2023-01-30T22:09:18.579Z,27.77
2023-01-30T22:11:46.176Z,33.72
2023-01-30T22:14:14.145Z,29.63
2023-01-30T22:16:41.676Z,26.95
2023-01-30T22:19:08.833Z,27.55
2023-01-30T22:21:37.600Z,25.17
2023-01-30T22:24:05.916Z,24.50
2023-01-30T22:26:33.980Z,23.05
2023-01-30T22:29:02.556Z,32.22
2023-01-30T22:31:34.971Z,28.52
2023-01-30T22:34:03.489Z,25.92
2023-01-30T22:36:33.588Z,26.20
2023-01-30T22:39:00.571Z,29.15
2023-01-30T22:41:28.649Z,30.98
2023-01-30T22:43:57.339Z,32.17
2023-01-30T22:46:26.198Z,26.90
2023-01-30T22:48:53.241Z,30.15
2023-01-30T22:51:23.356Z,27.70
2023-01-30T22:53:54.896Z,31.98
2023-01-30T22:56:24.233Z,26.98
2023-01-30T22:58:51.483Z,31.83
2023-01-30T23:01:22.774Z,30.33
2023-01-30T23:03:55.221Z,29.80
2023-01-30T23:06:22.275Z,26.38
2023-01-30T23:08:49.305Z,29.23
2023-01-30T23:11:20.677Z,31.10
2023-01-30T23:13:49.751Z,26.10
2023-01-30T23:16:19.890Z,30.23
2023-01-30T23:18:55.681Z,30.20
2023-01-30T23:21:24.197Z,29.88
2023-01-30T23:23:54.330Z,30.95
2023-01-30T23:26:23.330Z,29.95
2023-01-30T23:28:50.376Z,30.80
2023-01-30T23:31:20.744Z,29.98
2023-01-30T23:33:47.870Z,30.70
2023-01-30T23:36:15.123Z,30.10
2023-01-30T23:38:41.923Z,24.92
2023-01-30T23:41:10.339Z,29.85
2023-01-30T23:43:38.819Z,29.88
2023-01-30T23:46:19.506Z,28.98
2023-01-30T23:48:47.627Z,25.50
2023-01-30T23:51:15.555Z,26.42
2023-01-30T23:53:43.500Z,25.73
2023-01-30T23:56:11.240Z,23.35
2023-01-30T23:58:38.756Z,25.55
